1. Welcome to PlowSite. Notice a fresh look and new features? It’s now easier to share photos and videos, find popular topics fast, and enjoy expanded user profiles. If you have any questions, click HELP at the top or bottom of any page, or send an email to help@plowsite.com. We welcome your feedback.

    Dismiss Notice

TLS...this is for you

Discussion in 'Weather' started by 06HD BOSS, Dec 11, 2008.

  1. 06HD BOSS

    06HD BOSS 2000 Club Member
    Messages: 2,611

    TLS...this is for you (southern snow)

    Wow...its all i have to say. So its offical...Lousianna offically gets more snow than NJ this year. Forecasted to get 1-3"
    :dizzy::dizzy:

    snow.jpg

    snow2.jpg
     
    Last edited: Dec 11, 2008
  2. tls22

    tls22 PlowSite Veteran
    Messages: 4,263

    Its just another hit from the weather gods to drive the knife deeper! I have officially canceled winter for jersey, we will now have spring /summer all year around!



    When we partying at the casino? Im bored as ****!
     
  3. tls22

    tls22 PlowSite Veteran
    Messages: 4,263

    Lookin at that map, its just crazy how there is all ran over jersey and a blizzard in a place that gets hurricanes!:cry:
     
  4. ColliganLands

    ColliganLands PlowSite.com Addict
    Messages: 1,854

    were getting all rain here too. the week off from work is sure nice but im ready to get back out there and stop buying s*** i dont need
     
  5. iceyman

    iceyman 2000 Club Member
    Messages: 2,536

    This rare snow event is the earliest measurable snowfall of the fall/winter season in recorded history at beaumont port arthur and lake charles. In addition...all time record snowfall amounts for the month of december have been set at both beaumont port arthur and lake charles.
    Can you believe this is new orleans?? maybe one day tim well be the ones getting the records

    clearview1211.jpg
     
  6. tls22

    tls22 PlowSite Veteran
    Messages: 4,263

    Yes 63 degrees yesterday! I was listening to xmass music and watching jd push snow! This is by far the worse start to winter ever! I miss the fast times of landscaping and grass cutting! I have been off for 3 days and im bored out of my mind! I think im going to see if i can sell more leaf clean-ups, the weather is to nice not to! So those getting snow enjoy it! I dont know who i pissed off, but it does not snow here. Its just so hard to get snow in the winter, i have better luck in October!


    So here i sit in my pj's sipping coffee and watching plow vids of people that live in another country! I guess i could go back to bed, but thats just not productive! My truck is in the shop so i have no where to go!
     
    Last edited: Dec 11, 2008
  7. tls22

    tls22 PlowSite Veteran
    Messages: 4,263

    The reports out of Louisiana.......+snow means heavy snow! Unreal:cry:




    KMSY 111353Z 27013KT 1/4SM SN FG BKN009 OVC015 01/M01 A2984 RMK AO2
    RAB02E47PLB37E53SNB45 SLP105 P0003 T00111006 RVRNO=
    KMSY 111410Z 27012KT 1/8SM SN FG OVC004 01/M01 A2984 RMK AO2 P0002 RVRNO=
    KMSY 111412Z 26013KT 1/8SM +SN FG OVC004 01/M01 A2984 RMK AO2 P0003 RVRNO=
    KMSY 111420Z 25010KT 1/8SM +SN FG OVC006 01/M01 A2984 RMK AO2 P0003 RVRNO=
    KMSY 111422Z 25010KT 1/8SM +SN FG OVC004 01/M01 A2984 RMK AO2 P0003 RVRNO=
     
  8. 06HD BOSS

    06HD BOSS 2000 Club Member
    Messages: 2,611

    We are getting records Icey...worst winter pattern for the past 3 years lol.
    Also for CT, average November snowfall is 3"....nothing
    Average Dec rain precipitation is 4" ...its only the 11th and after today we'll be there


    For what its worth...in Dec 1945 CT got 45.3" of snow :rolleyes:
     
  9. 06HD BOSS

    06HD BOSS 2000 Club Member
    Messages: 2,611

    Its Cre and JD putting a hex on us. I also think GV supplied the spell book :nono:
     
  10. iceyman

    iceyman 2000 Club Member
    Messages: 2,536

    wat did NJ get that year.....
     
  11. tls22

    tls22 PlowSite Veteran
    Messages: 4,263

    I think its your relationship with enzo that is killing us!:waving:
     
  12. 06HD BOSS

    06HD BOSS 2000 Club Member
    Messages: 2,611

    Just a coating :D :bluebounc just kidding. i couldnt find it, maybe Tim can
     
  13. tls22

    tls22 PlowSite Veteran
    Messages: 4,263

    For nyc the snowiest december was 1947 29.6, but daves year was 1945! Feb 2006 we had 26.9 for that month...wow! Those where the good old days, that came in one storm!



    1947-1948 we had 63.2 inches of snow, just goes to show you if you get in the right pattern we can make up for lost time! In Feb 2005 i remeber plowing every week until the 2nd week in march!
     
  14. 06HD BOSS

    06HD BOSS 2000 Club Member
    Messages: 2,611

    it only gets better Tim... :cry: :dizzy:

    [​IMG]
     
  15. jt5019

    jt5019 Senior Member
    Messages: 853

    Its my fault.. I just bought a new truck,plow and spreader for this winter.... it's not going to snow in Conn now :salute:
     
  16. tls22

    tls22 PlowSite Veteran
    Messages: 4,263

    Sucks for you dave!:waving:
     
  17. 06HD BOSS

    06HD BOSS 2000 Club Member
    Messages: 2,611

    You and Enzo should hang out, he just did the same lol. you both ruined it for us. :cool:
    where in CT are you?
     
  18. sno commander

    sno commander PlowSite.com Addict
    from ct
    Messages: 1,061

    i bought a new rain maker this year too. :realmad: i have a nice new shiny plow in the driveway and i can't use it. i think im just going to :cry:
     
  19. Steve 455

    Steve 455 Member
    Messages: 74

    LMAO:eek:

    Hang in there it will snow someday;)
     
  20. ATouchofGrass

    ATouchofGrass Member
    from CT
    Messages: 82

    This is wack, where is the snow?